createdAt,value
2018-04-12T00:00:37.004Z,14.38
2018-04-12T00:03:07.100Z,14.39
2018-04-12T00:05:35.224Z,14.40
2018-04-12T00:08:03.303Z,14.25
2018-04-12T00:10:32.031Z,14.25
2018-04-12T00:13:00.248Z,14.23
2018-04-12T00:15:28.392Z,14.23
2018-04-12T00:17:56.493Z,14.32
2018-04-12T00:20:24.651Z,14.35
2018-04-12T00:22:52.751Z,14.36
2018-04-12T00:25:20.848Z,14.29
2018-04-12T00:27:49.616Z,14.30
2018-04-12T00:30:17.947Z,14.24
2018-04-12T00:32:46.627Z,14.32
2018-04-12T00:35:14.715Z,14.26
2018-04-12T00:37:42.803Z,14.24
2018-04-12T00:40:11.701Z,14.22
2018-04-12T00:42:39.811Z,14.29
2018-04-12T00:45:07.908Z,14.18
2018-04-12T00:47:36.327Z,14.18
2018-04-12T00:50:04.651Z,13.98
2018-04-12T00:52:37.681Z,14.03
2018-04-12T00:55:05.797Z,13.95
2018-04-12T00:57:35.679Z,13.94
2018-04-12T01:00:03.799Z,13.89
2018-04-12T01:02:32.327Z,13.80
2018-04-12T01:05:00.433Z,13.88
2018-04-12T01:07:29.311Z,13.90
2018-04-12T01:09:58.281Z,13.83
2018-04-12T01:12:27.298Z,13.74
2018-04-12T01:14:57.120Z,13.72
2018-04-12T01:17:25.940Z,13.77
2018-04-12T01:19:54.931Z,13.59
2018-04-12T01:22:23.823Z,13.50
2018-04-12T01:24:51.913Z,13.33
2018-04-12T01:27:20.220Z,13.41
2018-04-12T01:29:48.303Z,13.47
2018-04-12T01:32:16.430Z,13.26
2018-04-12T01:34:44.534Z,13.19
2018-04-12T01:37:12.697Z,13.05
2018-04-12T01:39:41.470Z,13.16
2018-04-12T01:42:09.554Z,13.11
2018-04-12T01:44:38.512Z,13.12
2018-04-12T01:47:07.396Z,13.09
2018-04-12T01:49:35.642Z,13.11
2018-04-12T01:52:04.132Z,13.11
2018-04-12T01:54:32.246Z,12.95
2018-04-12T01:57:01.482Z,12.83
2018-04-12T01:59:29.697Z,12.73
2018-04-12T02:01:58.054Z,12.83
2018-04-12T02:04:26.266Z,12.90
2018-04-12T02:06:54.866Z,12.82
2018-04-12T02:09:22.992Z,12.78
2018-04-12T02:11:51.146Z,12.69
2018-04-12T02:14:19.243Z,12.66
2018-04-12T02:16:47.461Z,12.68
2018-04-12T02:19:16.776Z,12.70
2018-04-12T02:21:44.879Z,12.63
2018-04-12T02:24:12.996Z,12.78
2018-04-12T02:26:41.111Z,12.75
2018-04-12T02:29:09.195Z,12.69
2018-04-12T02:31:37.319Z,12.69
2018-04-12T02:34:05.415Z,12.66
2018-04-12T02:36:39.303Z,12.76
2018-04-12T02:39:07.386Z,12.54
2018-04-12T02:41:35.503Z,12.50
2018-04-12T02:44:03.651Z,12.49
2018-04-12T02:46:32.459Z,12.35
2018-04-12T02:49:00.567Z,12.46
2018-04-12T02:51:28.739Z,12.37
2018-04-12T02:53:56.854Z,12.31
2018-04-12T02:56:24.912Z,12.22
2018-04-12T02:58:53.895Z,12.13
2018-04-12T03:01:21.982Z,12.24
2018-04-12T03:03:50.414Z,12.35
2018-04-12T03:16:04.420Z,12.16
2018-04-12T03:18:32.560Z,12.17
2018-04-12T03:21:02.679Z,12.26
2018-04-12T03:23:30.774Z,12.26
2018-04-12T03:25:58.881Z,12.16
2018-04-12T03:41:28.067Z,11.77
2018-04-12T03:43:58.007Z,11.89
2018-04-12T03:46:27.330Z,11.75
2018-04-12T03:48:55.423Z,11.69
2018-04-12T03:51:23.775Z,11.92
2018-04-12T03:53:51.847Z,11.95
2018-04-12T03:56:19.955Z,11.82
2018-04-12T03:58:48.861Z,11.72
2018-04-12T04:01:16.967Z,11.71
2018-04-12T04:03:45.052Z,11.86
2018-04-12T04:06:13.157Z,11.74
2018-04-12T04:08:41.534Z,11.82
2018-04-12T04:11:09.612Z,11.81
2018-04-12T04:13:38.341Z,11.72
2018-04-12T04:16:19.320Z,11.75
2018-04-12T04:18:59.125Z,11.81
2018-04-12T04:21:27.226Z,11.77
2018-04-12T04:23:56.949Z,11.73
2018-04-12T04:26:25.380Z,11.64
2018-04-12T04:28:53.444Z,11.56
2018-04-12T04:31:21.554Z,11.43
2018-04-12T04:33:51.378Z,11.50
2018-04-12T04:38:51.476Z,11.39
2018-04-12T04:41:20.303Z,11.18
2018-04-12T04:43:48.534Z,11.26
2018-04-12T04:46:16.626Z,11.24
2018-04-12T04:48:45.061Z,11.08
2018-04-12T04:51:13.430Z,11.07
2018-04-12T04:53:41.532Z,11.10
2018-04-12T04:56:09.635Z,11.02
2018-04-12T04:58:37.752Z,10.89
2018-04-12T05:01:05.843Z,10.94
2018-04-12T05:03:33.990Z,11.04
2018-04-12T05:06:03.310Z,10.95
2018-04-12T05:08:31.754Z,10.94
2018-04-12T05:11:00.719Z,10.92
2018-04-12T05:13:29.132Z,10.92
2018-04-12T05:15:57.318Z,10.84
2018-04-12T05:18:26.503Z,10.86
2018-04-12T05:20:54.556Z,10.65
2018-04-12T05:23:22.679Z,10.93
2018-04-12T05:25:50.835Z,10.95
2018-04-12T05:41:18.955Z,10.50
2018-04-12T05:43:47.405Z,10.52
2018-04-12T05:46:15.512Z,10.67
2018-04-12T05:48:43.895Z,10.67
2018-04-12T05:51:12.516Z,10.69
2018-04-12T05:53:41.467Z,10.55
2018-04-12T05:56:09.579Z,10.56
2018-04-12T05:58:37.911Z,10.61
2018-04-12T06:01:07.647Z,10.56
2018-04-12T06:03:35.742Z,10.56
2018-04-12T06:06:03.855Z,10.55
2018-04-12T06:08:32.819Z,10.48
2018-04-12T06:11:00.992Z,10.41
2018-04-12T06:13:29.731Z,10.33
2018-04-12T06:28:57.862Z,10.30
2018-04-12T06:31:26.958Z,10.43
2018-04-12T06:33:55.100Z,10.39
2018-04-12T06:36:23.247Z,10.49
2018-04-12T06:38:51.615Z,10.62
2018-04-12T06:41:19.744Z,10.64
2018-04-12T06:43:48.134Z,10.69
2018-04-12T06:46:16.259Z,10.54
2018-04-12T06:48:44.400Z,10.59
2018-04-12T07:04:12.528Z,10.47
2018-04-12T07:06:45.957Z,10.43
2018-04-12T07:09:14.089Z,10.55
2018-04-12T07:11:42.196Z,10.50
2018-04-12T07:14:10.321Z,10.40
2018-04-12T07:16:38.444Z,10.63
2018-04-12T07:19:06.546Z,10.68
2018-04-12T07:21:34.640Z,10.54
2018-04-12T07:24:02.759Z,10.67
2018-04-12T07:29:01.715Z,10.83
2018-04-12T07:31:29.844Z,10.85
2018-04-12T07:33:57.939Z,10.90
2018-04-12T07:36:27.030Z,10.93
2018-04-12T07:38:55.128Z,11.03
2018-04-12T07:41:23.221Z,11.03
2018-04-12T07:43:51.356Z,10.96
2018-04-12T07:46:19.429Z,10.93
2018-04-12T07:48:47.564Z,11.00
2018-04-12T07:51:15.684Z,11.01
2018-04-12T07:53:44.114Z,11.12
2018-04-12T07:56:13.338Z,10.83
2018-04-12T07:58:41.758Z,10.82
2018-04-12T08:01:09.866Z,10.83
2018-04-12T08:03:38.413Z,10.87
2018-04-12T08:06:06.505Z,10.85
2018-04-12T08:08:34.609Z,10.94
2018-04-12T08:11:03.082Z,10.87
2018-04-12T08:13:31.173Z,10.87
2018-04-12T08:15:59.259Z,10.80
2018-04-12T08:18:27.369Z,10.74
2018-04-12T08:20:55.465Z,10.73
2018-04-12T08:23:23.563Z,10.74
2018-04-12T08:25:51.667Z,10.80
2018-04-12T08:28:20.091Z,10.73
2018-04-12T08:30:48.215Z,10.80
2018-04-12T08:33:16.323Z,10.69
2018-04-12T08:35:44.425Z,10.73
2018-04-12T08:38:12.539Z,10.75
2018-04-12T08:40:40.717Z,10.84
2018-04-12T08:43:08.829Z,10.83
2018-04-12T08:45:36.923Z,10.87
2018-04-12T08:48:05.015Z,10.92
2018-04-12T08:50:33.158Z,11.02
2018-04-12T08:53:01.269Z,11.09
2018-04-12T08:55:29.367Z,11.14
2018-04-12T08:57:58.214Z,11.08
2018-04-12T09:00:26.330Z,11.00
2018-04-12T09:02:54.412Z,10.96
2018-04-12T09:05:22.538Z,11.00
2018-04-12T09:07:50.620Z,11.08
2018-04-12T09:10:18.742Z,11.11
2018-04-12T09:12:46.862Z,11.16
2018-04-12T09:15:15.905Z,11.11
2018-04-12T09:17:44.053Z,11.14
2018-04-12T09:20:12.266Z,11.17
2018-04-12T09:22:41.110Z,11.27
2018-04-12T09:25:09.236Z,11.37
2018-04-12T09:27:37.326Z,11.35
2018-04-12T09:30:06.420Z,11.53
2018-04-12T09:32:35.453Z,11.58
2018-04-12T09:35:03.577Z,11.57
2018-04-12T09:37:32.594Z,11.58
2018-04-12T09:40:00.712Z,11.68
2018-04-12T09:42:29.540Z,11.62
2018-04-12T09:44:57.633Z,11.80
2018-04-12T09:47:25.728Z,11.81
2018-04-12T09:49:54.074Z,11.80
2018-04-12T09:52:22.167Z,11.83
2018-04-12T09:54:51.159Z,11.81
2018-04-12T09:57:19.574Z,11.60
2018-04-12T09:59:47.695Z,11.60
2018-04-12T10:15:15.801Z,11.69
2018-04-12T10:17:44.200Z,11.68
2018-04-12T10:20:12.279Z,11.68
2018-04-12T10:22:40.399Z,11.64
2018-04-12T10:25:08.515Z,11.82
2018-04-12T10:27:36.618Z,11.89
2018-04-12T10:30:04.690Z,11.94
2018-04-12T10:32:32.854Z,11.93
2018-04-12T10:35:00.950Z,11.85
2018-04-12T10:37:29.045Z,11.97
2018-04-12T10:39:57.891Z,11.99
2018-04-12T10:42:27.333Z,11.95
2018-04-12T10:44:55.440Z,12.06
2018-04-12T10:47:23.800Z,11.99
2018-04-12T10:49:51.887Z,12.01
2018-04-12T10:52:20.970Z,12.08
2018-04-12T10:54:49.087Z,12.14
2018-04-12T10:57:18.193Z,12.06
2018-04-12T10:59:46.308Z,12.08
2018-04-12T11:02:14.666Z,12.27
2018-04-12T11:04:42.760Z,12.19
2018-04-12T11:07:11.513Z,12.21
2018-04-12T11:09:39.623Z,12.30
2018-04-12T11:12:07.745Z,12.32
2018-04-12T11:14:35.836Z,12.34
2018-04-12T11:17:03.956Z,12.34
2018-04-12T11:19:32.860Z,12.36
2018-04-12T11:22:01.904Z,12.39
2018-04-12T11:24:30.095Z,12.29
2018-04-12T11:26:58.486Z,12.34
2018-04-12T11:29:27.170Z,12.51
2018-04-12T11:31:55.260Z,12.52
2018-04-12T11:34:23.389Z,12.51
2018-04-12T11:36:52.254Z,12.46
2018-04-12T11:39:20.351Z,12.55
2018-04-12T11:41:49.218Z,12.55
2018-04-12T11:44:17.347Z,12.62
2018-04-12T11:46:45.493Z,12.66
2018-04-12T11:49:14.168Z,12.64
2018-04-12T11:51:42.397Z,12.68
2018-04-12T11:54:10.497Z,12.69
2018-04-12T11:56:38.610Z,12.69
2018-04-12T11:59:07.188Z,12.78
2018-04-12T12:01:35.361Z,12.85
2018-04-12T12:04:03.548Z,12.83
2018-04-12T12:06:31.655Z,12.85
2018-04-12T12:08:59.787Z,12.89
2018-04-12T12:11:27.883Z,12.86
2018-04-12T12:13:56.029Z,12.95
2018-04-12T12:16:24.187Z,12.87
2018-04-12T12:18:52.290Z,12.90
2018-04-12T12:21:20.390Z,12.96
2018-04-12T12:23:48.626Z,12.91
2018-04-12T12:26:16.649Z,13.00
2018-04-12T12:28:44.803Z,13.02
2018-04-12T12:31:12.944Z,12.98
2018-04-12T12:33:41.439Z,13.04
2018-04-12T12:36:09.555Z,13.02
2018-04-12T12:38:38.451Z,13.00
2018-04-12T12:41:06.639Z,12.93
2018-04-12T12:43:34.784Z,12.99
2018-04-12T12:46:02.894Z,13.01
2018-04-12T12:48:31.579Z,12.86
2018-04-12T12:50:59.704Z,12.88
2018-04-12T12:53:28.410Z,12.85
2018-04-12T12:55:56.522Z,12.81
2018-04-12T12:58:25.947Z,12.79
2018-04-12T13:00:54.047Z,12.75
2018-04-12T13:03:22.151Z,12.85
2018-04-12T13:05:50.273Z,12.81
2018-04-12T13:08:18.369Z,12.84
2018-04-12T13:10:47.470Z,12.83
2018-04-12T13:13:15.589Z,12.75
2018-04-12T13:28:43.726Z,12.60
2018-04-12T13:31:11.840Z,12.63
2018-04-12T13:33:40.549Z,12.71
2018-04-12T13:36:08.639Z,12.84
2018-04-12T13:38:36.760Z,12.76
2018-04-12T13:41:04.954Z,12.76
2018-04-12T13:43:33.044Z,12.77
2018-04-12T13:46:01.509Z,12.86
2018-04-12T13:48:29.605Z,12.94
2018-04-12T13:50:57.701Z,12.98
2018-04-12T13:53:26.399Z,12.99
2018-04-12T13:55:54.524Z,13.07
2018-04-12T13:58:23.182Z,13.10
2018-04-12T14:00:52.164Z,13.10
2018-04-12T14:03:20.268Z,13.05
2018-04-12T14:05:50.112Z,12.97
2018-04-12T14:08:18.596Z,12.99
2018-04-12T14:10:47.020Z,12.94
2018-04-12T14:13:15.094Z,12.92
2018-04-12T14:15:43.872Z,12.90
2018-04-12T14:18:11.963Z,12.88
2018-04-12T14:20:40.570Z,12.89
2018-04-12T14:23:08.647Z,12.81
2018-04-12T14:25:36.741Z,12.80
2018-04-12T14:28:04.864Z,12.76
2018-04-12T14:30:33.973Z,12.80
2018-04-12T14:33:02.098Z,12.81
2018-04-12T14:35:30.172Z,12.78
2018-04-12T14:37:58.375Z,12.78
2018-04-12T14:40:26.474Z,12.88
2018-04-12T14:42:54.572Z,12.90
2018-04-12T14:45:23.636Z,12.86
2018-04-12T14:47:51.734Z,12.91
2018-04-12T14:50:19.835Z,12.93
2018-04-12T14:52:47.983Z,12.99
2018-04-12T14:55:16.071Z,12.99
2018-04-12T14:57:44.168Z,13.07
2018-04-12T15:00:13.471Z,13.11
2018-04-12T15:02:41.588Z,13.23
2018-04-12T15:05:09.685Z,13.28
2018-04-12T15:07:37.790Z,13.28
2018-04-12T15:10:06.117Z,13.36
2018-04-12T15:25:34.256Z,13.54
2018-04-12T15:28:02.352Z,13.61
2018-04-12T15:30:30.499Z,13.65
2018-04-12T15:33:04.066Z,13.66
2018-04-12T15:35:37.753Z,13.69
2018-04-12T15:38:11.408Z,13.66
2018-04-12T15:40:44.896Z,13.63
2018-04-12T15:43:18.476Z,13.70
2018-04-12T15:45:52.526Z,13.72
2018-04-12T15:48:26.354Z,13.72
2018-04-12T15:51:00.069Z,13.75
2018-04-12T15:53:33.980Z,13.81
2018-04-12T15:56:07.583Z,13.78
2018-04-12T15:58:41.100Z,13.81
2018-04-12T16:01:14.795Z,13.79
2018-04-12T16:03:48.347Z,13.77
2018-04-12T16:16:07.611Z,13.81
2018-04-12T16:18:41.409Z,13.75
2018-04-12T16:21:15.924Z,13.82
2018-04-12T16:23:50.385Z,13.85
2018-04-12T16:26:24.171Z,13.90
2018-04-12T16:28:57.899Z,13.94
2018-04-12T16:31:32.212Z,13.86
2018-04-12T16:34:05.743Z,13.94
2018-04-12T16:36:40.142Z,14.03
2018-04-12T16:39:13.683Z,14.08
2018-04-12T16:41:48.176Z,14.07
2018-04-12T16:44:21.896Z,14.06
2018-04-12T16:46:55.463Z,14.02
2018-04-12T16:49:29.074Z,14.06
2018-04-12T16:52:02.679Z,14.08
2018-04-12T16:54:36.386Z,14.10
2018-04-12T16:57:09.999Z,14.10
2018-04-12T16:59:43.559Z,14.15
2018-04-12T17:02:18.038Z,14.19
2018-04-12T17:04:52.085Z,14.23
2018-04-12T17:07:25.826Z,14.29
2018-04-12T17:09:59.459Z,14.28
2018-04-12T17:12:33.421Z,14.13
2018-04-12T17:15:07.336Z,14.17
2018-04-12T17:17:40.927Z,14.24
2018-04-12T17:20:14.466Z,14.30
2018-04-12T17:22:48.320Z,14.25
2018-04-12T17:25:21.804Z,14.29
2018-04-12T17:27:55.464Z,14.31
2018-04-12T17:30:29.091Z,14.37
2018-04-12T17:33:02.736Z,14.39
2018-04-12T17:35:36.319Z,14.42
2018-04-12T17:38:10.281Z,14.32
2018-04-12T17:40:44.711Z,14.25
2018-04-12T17:43:18.845Z,14.24
2018-04-12T17:45:52.487Z,14.24
2018-04-12T17:48:25.961Z,14.31
2018-04-12T17:50:59.497Z,14.34
2018-04-12T17:53:33.235Z,14.36
2018-04-12T17:56:07.028Z,14.27
2018-04-12T17:58:40.975Z,14.26
2018-04-12T18:01:14.713Z,14.29
2018-04-12T18:03:48.322Z,14.26
2018-04-12T18:06:23.375Z,14.31
2018-04-12T18:08:57.435Z,14.36
2018-04-12T18:11:31.645Z,14.36
2018-04-12T18:14:05.575Z,14.31
2018-04-12T18:16:39.797Z,14.36
2018-04-12T18:19:13.381Z,14.27
2018-04-12T18:21:47.767Z,14.29
2018-04-12T18:24:22.496Z,14.33
2018-04-12T18:26:56.336Z,14.23
2018-04-12T18:29:29.839Z,14.29
2018-04-12T18:32:03.391Z,14.30
2018-04-12T18:34:37.004Z,14.25
2018-04-12T18:37:10.708Z,14.23
2018-04-12T18:39:45.295Z,14.22
2018-04-12T18:42:19.047Z,14.17
2018-04-12T18:44:52.676Z,14.26
2018-04-12T18:47:26.423Z,14.24
2018-04-12T18:50:00.004Z,14.22
2018-04-12T18:52:33.752Z,14.29
2018-04-12T18:55:07.610Z,14.23
2018-04-12T18:57:41.111Z,14.29
2018-04-12T19:00:14.675Z,14.29
2018-04-12T19:02:48.422Z,14.30
2018-04-12T19:05:21.986Z,14.30
2018-04-12T19:07:55.609Z,14.29
2018-04-12T19:10:29.911Z,14.28
2018-04-12T19:13:03.676Z,14.22
2018-04-12T19:15:37.383Z,14.28
2018-04-12T19:18:11.035Z,14.25
2018-04-12T19:20:44.788Z,14.25
2018-04-12T19:23:18.582Z,14.16
2018-04-12T19:25:52.197Z,14.16
2018-04-12T19:28:25.868Z,14.19
2018-04-12T19:30:59.731Z,14.18
2018-04-12T19:33:35.067Z,14.19
2018-04-12T19:36:08.582Z,14.17
2018-04-12T19:38:42.301Z,14.23
2018-04-12T19:41:15.958Z,14.22
2018-04-12T19:43:49.633Z,14.21
2018-04-12T19:46:23.204Z,14.19
2018-04-12T19:48:56.927Z,14.25
2018-04-12T19:51:30.475Z,14.26
2018-04-12T19:54:04.129Z,14.25
2018-04-12T19:56:37.675Z,14.25
2018-04-12T19:59:11.488Z,14.25
2018-04-12T20:01:45.102Z,14.26
2018-04-12T20:04:19.691Z,14.27
2018-04-12T20:06:53.471Z,14.29
2018-04-12T20:09:27.103Z,14.15
2018-04-12T20:12:00.649Z,14.21
2018-04-12T20:14:34.353Z,14.17
2018-04-12T20:17:09.742Z,14.12
2018-04-12T20:19:43.698Z,14.05
2018-04-12T20:22:17.333Z,14.04
2018-04-12T20:24:51.051Z,14.05
2018-04-12T20:27:24.575Z,14.04
2018-04-12T20:29:58.171Z,14.01
2018-04-12T20:32:31.754Z,14.03
2018-04-12T20:35:05.343Z,14.08
2018-04-12T20:37:38.884Z,14.08
2018-04-12T20:40:12.395Z,14.14
2018-04-12T20:42:46.444Z,14.15
2018-04-12T20:45:20.182Z,14.16
2018-04-12T20:47:53.886Z,14.14
2018-04-12T20:50:27.422Z,14.13
2018-04-12T20:53:02.171Z,14.16
2018-04-12T20:55:35.855Z,14.12
2018-04-12T20:58:09.398Z,14.15
2018-04-12T21:00:42.882Z,14.21
2018-04-12T21:03:16.432Z,14.21
2018-04-12T21:05:50.008Z,14.15
2018-04-12T21:08:23.585Z,14.14
2018-04-12T21:10:57.207Z,14.09
2018-04-12T21:13:30.858Z,14.07
2018-04-12T21:16:05.479Z,14.04
2018-04-12T21:18:40.240Z,13.99
2018-04-12T21:21:14.014Z,13.93
2018-04-12T21:23:48.331Z,13.92
2018-04-12T21:26:22.082Z,13.95
2018-04-12T21:28:55.828Z,13.97
2018-04-12T21:31:29.335Z,13.94
2018-04-12T21:34:02.935Z,13.93
2018-04-12T21:36:36.511Z,13.93
2018-04-12T21:39:10.247Z,13.90
2018-04-12T21:41:43.807Z,13.87
2018-04-12T21:44:17.428Z,13.92
2018-04-12T21:46:51.314Z,13.91
2018-04-12T21:49:24.974Z,13.92
2018-04-12T21:51:58.746Z,13.92
2018-04-12T21:54:32.657Z,13.92
2018-04-12T21:57:07.371Z,13.93
2018-04-12T21:59:40.982Z,13.93
2018-04-12T22:02:14.705Z,13.99
2018-04-12T22:04:48.494Z,13.98
2018-04-12T22:07:22.146Z,13.94
2018-04-12T22:09:55.978Z,13.91
2018-04-12T22:12:29.491Z,13.87
2018-04-12T22:15:03.115Z,13.88
2018-04-12T22:17:36.906Z,13.90
2018-04-12T22:20:10.598Z,13.90
2018-04-12T22:22:44.146Z,13.93
2018-04-12T22:25:17.837Z,13.92
2018-04-12T22:27:51.475Z,13.96
2018-04-12T22:30:25.092Z,13.98
2018-04-12T22:32:58.670Z,14.02
2018-04-12T22:35:32.366Z,14.00
2018-04-12T22:38:06.901Z,13.98
2018-04-12T22:40:40.423Z,13.95
2018-04-12T22:43:14.028Z,13.91
2018-04-12T22:45:48.763Z,13.85
2018-04-12T22:48:22.520Z,13.82
2018-04-12T22:50:59.010Z,13.80
2018-04-12T22:53:33.585Z,13.77
2018-04-12T22:56:07.825Z,13.79
2018-04-12T22:58:41.767Z,13.75
2018-04-12T23:01:16.269Z,13.73
2018-04-12T23:03:50.040Z,13.72
2018-04-12T23:06:23.775Z,13.75
2018-04-12T23:08:57.345Z,13.74
2018-04-12T23:11:31.095Z,13.69
2018-04-12T23:14:04.693Z,13.70
2018-04-12T23:16:38.338Z,13.66
2018-04-12T23:19:12.106Z,13.69
2018-04-12T23:21:45.892Z,13.67
2018-04-12T23:24:19.483Z,13.71
2018-04-12T23:26:53.261Z,13.74
2018-04-12T23:29:27.829Z,13.74
2018-04-12T23:32:01.495Z,13.78
2018-04-12T23:34:35.155Z,13.80
2018-04-12T23:37:08.721Z,13.79
2018-04-12T23:39:42.365Z,13.75
2018-04-12T23:42:16.885Z,13.73
2018-04-12T23:44:50.368Z,13.69
2018-04-12T23:47:24.954Z,13.70
2018-04-12T23:49:58.603Z,13.67
2018-04-12T23:52:32.178Z,13.70
2018-04-12T23:55:07.267Z,13.69
2018-04-12T23:57:41.198Z,13.68
